Time;durP1;ratioP1;P1;durP2;ratioP2;P2;SDS_P1;SDS_P2;PMS_P1;PMS_P2;Temp;Humidity;BMP_temperature;BMP_pressure;BME280_temperature;BME280_humidity;BME280_pressure;Samples;Min_cycle;Max_cycle;Signal;HPM_P1;HPM_P2
2021/09/15 00:00:57;;;;;;;50.92;11.25;;;;;;;;;;5017451;28;20417;-35
2021/09/15 00:03:22;;;;;;;68.10;14.25;;;;;;;;;;5012033;28;20046;-34
2021/09/15 00:05:47;;;;;;;54.47;13.57;;;;;;;;;;5018906;28;20322;-35
2021/09/15 00:08:13;;;;;;;44.70;13.80;;;;;;;;;;5016494;28;20026;-35
2021/09/15 00:10:38;;;;;;;36.17;12.60;;;;;;;;;;5016302;28;20022;-35
2021/09/15 00:13:03;;;;;;;54.83;17.33;;;;;;;;;;5019080;28;20037;-35
2021/09/15 00:15:29;;;;;;;49.50;13.98;;;;;;;;;;5015993;28;20378;-35
2021/09/15 00:17:54;;;;;;;47.00;13.40;;;;;;;;;;5019380;28;20030;-35
2021/09/15 00:20:19;;;;;;;49.92;13.73;;;;;;;;;;5015038;28;20055;-35
2021/09/15 00:22:45;;;;;;;63.05;15.27;;;;;;;;;;5014999;28;20554;-35
2021/09/15 00:25:10;;;;;;;50.00;15.75;;;;;;;;;;5018490;28;20025;-35
2021/09/15 00:27:35;;;;;;;55.15;17.35;;;;;;;;;;5016863;28;20053;-35
2021/09/15 00:30:01;;;;;;;36.53;13.50;;;;;;;;;;5017834;28;20036;-35
2021/09/15 00:32:26;;;;;;;49.22;13.23;;;;;;;;;;5014988;28;20552;-35
2021/09/15 00:34:52;;;;;;;54.95;15.27;;;;;;;;;;5013331;28;20032;-35
2021/09/15 00:37:17;;;;;;;79.45;17.90;;;;;;;;;;5015793;28;20044;-35
2021/09/15 00:39:42;;;;;;;69.50;16.20;;;;;;;;;;5018846;28;20013;-35
2021/09/15 00:42:08;;;;;;;73.13;17.00;;;;;;;;;;5015691;28;20029;-34
2021/09/15 00:44:34;;;;;;;56.00;16.58;;;;;;;;;;5012573;28;20049;-35
2021/09/15 00:46:59;;;;;;;52.20;18.88;;;;;;;;;;5016980;28;20516;-35
2021/09/15 00:49:24;;;;;;;50.13;16.13;;;;;;;;;;5019671;28;20026;-35
2021/09/15 00:51:50;;;;;;;96.78;23.23;;;;;;;;;;5019346;28;20057;-35
2021/09/15 00:54:16;;;;;;;73.78;17.42;;;;;;;;;;5014275;28;20021;-35
2021/09/15 00:56:42;;;;;;;82.22;18.67;;;;;;;;;;5010528;28;20036;-35
2021/09/15 00:59:07;;;;;;;59.83;18.50;;;;;;;;;;5012092;28;20013;-35
2021/09/15 01:01:32;;;;;;;72.40;17.92;;;;;;;;;;5006493;28;20501;-35
2021/09/15 01:03:58;;;;;;;100.40;20.70;;;;;;;;;;5016073;28;20032;-35
2021/09/15 01:06:24;;;;;;;65.13;20.48;;;;;;;;;;5020280;28;20053;-35
2021/09/15 01:08:49;;;;;;;80.97;19.65;;;;;;;;;;5022393;28;20064;-35
2021/09/15 01:11:15;;;;;;;78.68;20.65;;;;;;;;;;5020695;28;20040;-35
2021/09/15 01:13:40;;;;;;;74.38;18.58;;;;;;;;;;5015415;28;20025;-35
2021/09/15 01:16:06;;;;;;;38.78;15.77;;;;;;;;;;5017095;28;20079;-34
2021/09/15 01:18:31;;;;;;;65.25;17.25;;;;;;;;;;5012843;28;20362;-35
2021/09/15 01:20:57;;;;;;;70.15;19.00;;;;;;;;;;5017902;28;20022;-35
2021/09/15 01:23:22;;;;;;;63.42;18.73;;;;;;;;;;5016840;28;20060;-34
2021/09/15 01:25:48;;;;;;;75.13;21.40;;;;;;;;;;5019413;28;20033;-34
2021/09/15 01:28:14;;;;;;;66.90;18.48;;;;;;;;;;5017898;28;20427;-34
2021/09/15 01:30:39;;;;;;;46.17;14.07;;;;;;;;;;5012550;28;20022;-48
2021/09/15 01:33:04;;;;;;;60.92;18.95;;;;;;;;;;5011439;28;20034;-47
2021/09/15 01:35:30;;;;;;;44.13;15.70;;;;;;;;;;5017117;28;20049;-48
2021/09/15 01:37:56;;;;;;;40.30;12.45;;;;;;;;;;5017230;28;20026;-50
2021/09/15 01:40:21;;;;;;;56.42;15.30;;;;;;;;;;5016789;28;20048;-49
2021/09/15 01:42:46;;;;;;;63.08;18.17;;;;;;;;;;5016082;28;20396;-48
2021/09/15 01:45:12;;;;;;;95.03;16.20;;;;;;;;;;5014387;28;20021;-48
2021/09/15 01:47:38;;;;;;;72.30;17.40;;;;;;;;;;5011413;28;20079;-49
2021/09/15 01:50:05;;;;;;;78.20;18.60;;;;;;;;;;5017072;28;20731;-46
2021/09/15 01:52:30;;;;;;;68.63;16.48;;;;;;;;;;5016171;28;20026;-47
2021/09/15 01:54:55;;;;;;;84.35;16.67;;;;;;;;;;5013977;28;20520;-47
2021/09/15 01:57:20;;;;;;;54.90;15.73;;;;;;;;;;5017199;28;20034;-46
2021/09/15 01:59:46;;;;;;;71.07;15.68;;;;;;;;;;5013257;28;20041;-44
2021/09/15 02:02:11;;;;;;;46.22;13.90;;;;;;;;;;5018835;28;20083;-47
2021/09/15 02:04:40;;;;;;;44.30;14.60;;;;;;;;;;5023321;28;20054;-50
2021/09/15 02:07:06;;;;;;;45.10;13.45;;;;;;;;;;5018600;28;20022;-46
2021/09/15 02:09:31;;;;;;;48.28;14.18;;;;;;;;;;5021134;28;20028;-43
2021/09/15 02:11:57;;;;;;;41.05;14.75;;;;;;;;;;5019634;28;20549;-48
2021/09/15 02:14:22;;;;;;;49.03;12.23;;;;;;;;;;5021741;28;20025;-45
2021/09/15 02:16:48;;;;;;;40.92;12.40;;;;;;;;;;5017163;28;20022;-43
2021/09/15 02:19:13;;;;;;;31.65;8.15;;;;;;;;;;5019598;28;20022;-43
2021/09/15 02:21:38;;;;;;;32.67;10.20;;;;;;;;;;5016585;28;20026;-47
2021/09/15 02:24:04;;;;;;;32.85;13.35;;;;;;;;;;5016646;28;20103;-45
2021/09/15 02:26:31;;;;;;;28.60;11.27;;;;;;;;;;5016935;28;20096;-45
2021/09/15 02:28:57;;;;;;;39.15;11.23;;;;;;;;;;5021830;28;20538;-48
2021/09/15 02:31:22;;;;;;;29.90;11.10;;;;;;;;;;5023812;28;20025;-44
2021/09/15 02:33:47;;;;;;;49.60;12.05;;;;;;;;;;5016472;28;20097;-43
2021/09/15 02:36:12;;;;;;;44.72;11.93;;;;;;;;;;5021666;28;20017;-45
2021/09/15 02:38:38;;;;;;;37.15;9.80;;;;;;;;;;5018988;28;20116;-43
2021/09/15 02:41:03;;;;;;;36.03;10.20;;;;;;;;;;5019188;28;20018;-44
2021/09/15 02:43:28;;;;;;;22.00;8.65;;;;;;;;;;5019221;28;20026;-43
2021/09/15 02:45:54;;;;;;;29.58;8.23;;;;;;;;;;5020620;28;20021;-46
2021/09/15 02:48:19;;;;;;;37.15;9.95;;;;;;;;;;5019219;28;20017;-44
2021/09/15 02:50:44;;;;;;;39.50;11.27;;;;;;;;;;5023668;28;20025;-45
2021/09/15 02:53:11;;;;;;;28.92;10.90;;;;;;;;;;5021641;28;20621;-44
2021/09/15 02:55:36;;;;;;;39.53;10.57;;;;;;;;;;5024131;28;20454;-45
2021/09/15 02:58:03;;;;;;;40.78;9.63;;;;;;;;;;5021273;28;20049;-45
2021/09/15 03:00:29;;;;;;;28.80;8.35;;;;;;;;;;5023861;28;20021;-44
2021/09/15 03:02:54;;;;;;;23.15;10.20;;;;;;;;;;5018772;28;20422;-46
2021/09/15 03:05:20;;;;;;;25.45;10.65;;;;;;;;;;5014126;28;20726;-44
2021/09/15 03:07:45;;;;;;;19.42;6.47;;;;;;;;;;5016991;28;20038;-47
2021/09/15 03:10:10;;;;;;;41.67;9.73;;;;;;;;;;5015341;28;20374;-47
2021/09/15 03:12:36;;;;;;;27.27;9.68;;;;;;;;;;5025132;28;20116;-48
2021/09/15 03:15:01;;;;;;;24.73;8.80;;;;;;;;;;5026022;28;20021;-45
2021/09/15 03:17:26;;;;;;;36.00;9.18;;;;;;;;;;5019224;28;20406;-44
2021/09/15 03:19:52;;;;;;;27.88;8.63;;;;;;;;;;5021974;28;20112;-44
2021/09/15 03:22:17;;;;;;;13.73;4.72;;;;;;;;;;5017952;28;20021;-44
2021/09/15 03:24:43;;;;;;;24.27;8.77;;;;;;;;;;5014990;28;20033;-44
2021/09/15 03:27:08;;;;;;;20.42;7.70;;;;;;;;;;5013674;28;20469;-43
2021/09/15 03:29:33;;;;;;;13.05;5.35;;;;;;;;;;5019873;28;20018;-43
2021/09/15 03:31:59;;;;;;;22.73;6.97;;;;;;;;;;5018993;28;20070;-44
2021/09/15 03:34:24;;;;;;;18.45;7.13;;;;;;;;;;5018623;28;20645;-45
2021/09/15 03:36:49;;;;;;;33.63;8.10;;;;;;;;;;5020713;28;20017;-44
2021/09/15 03:39:15;;;;;;;25.08;10.27;;;;;;;;;;5013087;28;20052;-45
2021/09/15 03:41:41;;;;;;;35.10;6.45;;;;;;;;;;5013319;28;20495;-45
2021/09/15 03:44:06;;;;;;;19.70;7.55;;;;;;;;;;5015226;28;20037;-44
2021/09/15 03:46:31;;;;;;;15.55;7.78;;;;;;;;;;5013156;28;20053;-43
2021/09/15 03:48:57;;;;;;;21.02;7.88;;;;;;;;;;5018345;28;20112;-44
2021/09/15 03:51:22;;;;;;;28.25;7.32;;;;;;;;;;5020076;28;20018;-43
2021/09/15 03:53:47;;;;;;;20.05;7.30;;;;;;;;;;5021151;28;20013;-45
2021/09/15 03:56:12;;;;;;;24.40;6.53;;;;;;;;;;5019033;28;20384;-45
2021/09/15 03:58:38;;;;;;;18.27;7.80;;;;;;;;;;5022325;28;20024;-45
2021/09/15 04:01:03;;;;;;;14.40;7.43;;;;;;;;;;5013575;28;20084;-43
2021/09/15 04:03:28;;;;;;;19.08;6.50;;;;;;;;;;5012557;28;20025;-42
2021/09/15 04:05:54;;;;;;;16.23;5.80;;;;;;;;;;5016508;28;20594;-45
2021/09/15 04:08:19;;;;;;;18.33;5.82;;;;;;;;;;5016765;28;20018;-42
2021/09/15 04:10:44;;;;;;;24.42;7.15;;;;;;;;;;5019885;28;20025;-43
2021/09/15 04:13:09;;;;;;;22.00;5.95;;;;;;;;;;5018015;28;20030;-45
2021/09/15 04:15:35;;;;;;;26.00;6.88;;;;;;;;;;5022461;28;20025;-43
2021/09/15 04:18:00;;;;;;;15.98;6.57;;;;;;;;;;5017407;28;20537;-44
2021/09/15 04:20:25;;;;;;;41.40;7.90;;;;;;;;;;5015594;28;20030;-44
2021/09/15 04:22:51;;;;;;;25.70;9.13;;;;;;;;;;5013103;28;20018;-45
2021/09/15 04:33:28;;;;;;;22.45;7.60;;;;;;;;;;5016474;28;20016;-43
2021/09/15 04:35:54;;;;;;;22.73;9.57;;;;;;;;;;5019838;28;20102;-46
2021/09/15 04:38:19;;;;;;;25.10;9.05;;;;;;;;;;5010171;28;20044;-42
2021/09/15 04:40:44;;;;;;;30.73;7.47;;;;;;;;;;5013209;28;20029;-43
2021/09/15 04:43:10;;;;;;;24.50;6.93;;;;;;;;;;5013526;28;20025;-43
2021/09/15 04:45:36;;;;;;;27.15;7.60;;;;;;;;;;5021782;28;20554;-43
2021/09/15 04:48:02;;;;;;;12.30;5.40;;;;;;;;;;5021843;28;20328;-44
2021/09/15 04:50:27;;;;;;;35.42;6.03;;;;;;;;;;5016022;28;20481;-43
2021/09/15 04:52:52;;;;;;;18.63;5.68;;;;;;;;;;5013898;28;20108;-43
2021/09/15 04:55:18;;;;;;;21.38;8.90;;;;;;;;;;5017631;28;20382;-43
2021/09/15 04:57:43;;;;;;;27.10;8.35;;;;;;;;;;5015461;28;20470;-49
2021/09/15 05:00:09;;;;;;;19.10;6.70;;;;;;;;;;5018036;28;20022;-50
2021/09/15 05:02:34;;;;;;;14.13;6.28;;;;;;;;;;5016031;28;20144;-48
2021/09/15 05:04:59;;;;;;;18.02;5.53;;;;;;;;;;5012095;28;20120;-49
2021/09/15 05:07:25;;;;;;;19.98;7.32;;;;;;;;;;5014609;28;20076;-48
2021/09/15 05:09:50;;;;;;;24.35;7.80;;;;;;;;;;5014685;28;20409;-45
2021/09/15 05:12:15;;;;;;;20.42;5.45;;;;;;;;;;5017851;28;20128;-46
2021/09/15 05:14:40;;;;;;;13.80;4.80;;;;;;;;;;5013949;28;20047;-47
2021/09/15 05:17:06;;;;;;;20.95;6.68;;;;;;;;;;5013891;28;20508;-46
2021/09/15 05:19:31;;;;;;;33.85;7.70;;;;;;;;;;5012709;28;20113;-44
2021/09/15 05:21:56;;;;;;;17.90;6.03;;;;;;;;;;5013489;28;20609;-43
2021/09/15 05:24:22;;;;;;;26.60;6.15;;;;;;;;;;5016187;28;20861;-47
2021/09/15 05:26:47;;;;;;;28.85;6.47;;;;;;;;;;5019064;28;20109;-44
2021/09/15 05:29:12;;;;;;;10.18;4.43;;;;;;;;;;5014153;28;20056;-43
2021/09/15 05:31:37;;;;;;;15.05;6.35;;;;;;;;;;5010893;28;20032;-46
2021/09/15 05:34:03;;;;;;;15.35;4.43;;;;;;;;;;5012843;28;20421;-43
2021/09/15 05:36:28;;;;;;;21.85;7.35;;;;;;;;;;5017801;28;20025;-43
2021/09/15 05:38:53;;;;;;;13.10;6.15;;;;;;;;;;5018659;28;20069;-47
2021/09/15 05:41:19;;;;;;;16.30;6.50;;;;;;;;;;5019385;28;20044;-45
2021/09/15 05:43:44;;;;;;;25.42;6.68;;;;;;;;;;5019644;28;20445;-45
2021/09/15 05:46:09;;;;;;;26.40;6.72;;;;;;;;;;5024404;28;20059;-46
2021/09/15 05:48:35;;;;;;;15.10;6.05;;;;;;;;;;5023177;28;20033;-43
2021/09/15 05:51:00;;;;;;;19.77;5.93;;;;;;;;;;5018682;28;20572;-44
2021/09/15 05:53:25;;;;;;;13.80;3.60;;;;;;;;;;5021201;28;20473;-43
2021/09/15 05:55:51;;;;;;;30.92;6.70;;;;;;;;;;5022344;28;20013;-43
2021/09/15 05:58:18;;;;;;;29.65;7.25;;;;;;;;;;5017453;28;20026;-43
2021/09/15 06:00:43;;;;;;;16.33;5.90;;;;;;;;;;5019051;28;20026;-45
2021/09/15 06:03:08;;;;;;;13.23;4.15;;;;;;;;;;5021578;28;20014;-45
2021/09/15 06:05:33;;;;;;;13.80;5.53;;;;;;;;;;5022284;28;20132;-44
2021/09/15 06:07:59;;;;;;;13.77;6.43;;;;;;;;;;5016333;28;20036;-45
2021/09/15 06:10:24;;;;;;;14.65;5.53;;;;;;;;;;5015023;28;20665;-46
2021/09/15 06:12:49;;;;;;;20.65;7.00;;;;;;;;;;5016296;28;20751;-43
2021/09/15 06:15:15;;;;;;;16.95;6.10;;;;;;;;;;5020837;28;20053;-45
2021/09/15 06:17:40;;;;;;;18.85;5.90;;;;;;;;;;5021958;28;20382;-44
2021/09/15 06:20:06;;;;;;;17.65;6.40;;;;;;;;;;5022189;28;20026;-43
2021/09/15 06:22:31;;;;;;;17.67;6.05;;;;;;;;;;5017835;28;20026;-45
2021/09/15 06:24:58;;;;;;;23.88;6.80;;;;;;;;;;5020846;28;20049;-45
2021/09/15 06:27:23;;;;;;;18.23;5.90;;;;;;;;;;5022995;28;20025;-43
2021/09/15 06:29:49;;;;;;;14.45;6.03;;;;;;;;;;5006020;28;20020;-44
2021/09/15 06:32:17;;;;;;;33.53;7.18;;;;;;;;;;5018139;28;20037;-45
2021/09/15 06:34:42;;;;;;;22.02;7.05;;;;;;;;;;5020614;28;20013;-45
2021/09/15 06:37:07;;;;;;;10.88;4.47;;;;;;;;;;5019199;28;20026;-43
2021/09/15 06:39:33;;;;;;;16.00;4.68;;;;;;;;;;5020776;28;20029;-43
2021/09/15 06:41:58;;;;;;;15.75;5.95;;;;;;;;;;5019088;28;20022;-43
2021/09/15 06:44:23;;;;;;;24.30;6.55;;;;;;;;;;5016309;28;20045;-43
2021/09/15 06:46:49;;;;;;;21.88;7.85;;;;;;;;;;5018932;28;20018;-42
2021/09/15 06:52:17;;;;;;;19.30;7.20;;;;;;;;;;5012732;28;20553;-44
2021/09/15 06:54:47;;;;;;;16.25;6.22;;;;;;;;;;5017207;28;20108;-42
2021/09/15 06:57:12;;;;;;;12.88;4.68;;;;;;;;;;5017827;28;20705;-44
2021/09/15 06:59:37;;;;;;;27.65;7.22;;;;;;;;;;5019582;28;20085;-47
2021/09/15 07:02:03;;;;;;;19.95;6.03;;;;;;;;;;5016842;28;20041;-45
2021/09/15 07:04:28;;;;;;;27.20;6.00;;;;;;;;;;5017772;28;20030;-46
2021/09/15 07:06:54;;;;;;;16.67;5.00;;;;;;;;;;5011814;28;20037;-48
2021/09/15 07:09:19;;;;;;;17.27;4.13;;;;;;;;;;5014975;28;20248;-46
2021/09/15 07:11:44;;;;;;;19.92;4.97;;;;;;;;;;5017123;28;20025;-47
2021/09/15 07:14:09;;;;;;;20.70;5.28;;;;;;;;;;5016099;28;20018;-48
2021/09/15 07:16:35;;;;;;;17.02;5.25;;;;;;;;;;5014982;28;20014;-47
2021/09/15 07:19:00;;;;;;;14.13;4.05;;;;;;;;;;5015219;28;20071;-45
2021/09/15 07:21:26;;;;;;;9.98;4.32;;;;;;;;;;5011704;28;20036;-55
2021/09/15 07:23:51;;;;;;;8.85;3.92;;;;;;;;;;5015330;28;20104;-52
2021/09/15 07:26:16;;;;;;;7.20;3.15;;;;;;;;;;5019224;28;20037;-47
2021/09/15 07:28:42;;;;;;;22.02;5.72;;;;;;;;;;5020489;28;20026;-45
2021/09/15 07:31:07;;;;;;;11.15;4.88;;;;;;;;;;5014485;28;20572;-48
2021/09/15 07:33:33;;;;;;;12.98;3.22;;;;;;;;;;5016123;28;20026;-45
2021/09/15 07:36:01;;;;;;;18.92;4.82;;;;;;;;;;5017314;28;20026;-54
2021/09/15 07:38:27;;;;;;;11.52;5.35;;;;;;;;;;5018121;28;20049;-48
2021/09/15 07:40:53;;;;;;;16.90;5.93;;;;;;;;;;5014709;28;20051;-53
2021/09/15 07:43:18;;;;;;;18.92;6.60;;;;;;;;;;5012834;28;20067;-48
2021/09/15 07:45:43;;;;;;;17.25;6.88;;;;;;;;;;5020392;28;20021;-51
2021/09/15 07:48:08;;;;;;;12.57;6.55;;;;;;;;;;5023120;28;20029;-55
2021/09/15 07:50:34;;;;;;;25.98;5.22;;;;;;;;;;5019036;28;20639;-53
2021/09/15 07:52:59;;;;;;;29.45;5.10;;;;;;;;;;5019927;28;20109;-51
2021/09/15 07:55:24;;;;;;;19.77;6.15;;;;;;;;;;5020191;28;20381;-52
2021/09/15 07:57:53;;;;;;;22.75;5.75;;;;;;;;;;5017414;28;20120;-47
2021/09/15 08:00:18;;;;;;;11.23;3.63;;;;;;;;;;5014771;28;20123;-48
2021/09/15 08:02:43;;;;;;;14.27;3.92;;;;;;;;;;5014378;28;20592;-48
2021/09/15 08:05:09;;;;;;;19.20;5.00;;;;;;;;;;5015595;28;20103;-45
2021/09/15 08:07:34;;;;;;;16.30;4.22;;;;;;;;;;5016401;28;20168;-45
2021/09/15 08:10:00;;;;;;;14.80;4.18;;;;;;;;;;5014226;28;20032;-57
2021/09/15 08:12:25;;;;;;;12.40;5.13;;;;;;;;;;5011624;28;20592;-57
2021/09/15 08:14:50;;;;;;;17.02;5.95;;;;;;;;;;5013621;28;20018;-58
2021/09/15 08:17:15;;;;;;;19.70;3.53;;;;;;;;;;5013626;28;20025;-52
2021/09/15 08:19:41;;;;;;;21.02;4.25;;;;;;;;;;5008705;28;20076;-52
2021/09/15 08:22:06;;;;;;;9.13;5.30;;;;;;;;;;5011550;28;20163;-54
2021/09/15 08:24:31;;;;;;;11.65;4.47;;;;;;;;;;5011662;28;20080;-47
2021/09/15 08:26:57;;;;;;;20.20;4.55;;;;;;;;;;5016634;28;20112;-52
2021/09/15 08:29:22;;;;;;;18.55;4.25;;;;;;;;;;5019863;28;20564;-54
2021/09/15 08:31:47;;;;;;;20.48;4.63;;;;;;;;;;5017240;28;20366;-55
2021/09/15 08:34:13;;;;;;;38.53;6.50;;;;;;;;;;5016872;28;20116;-54
2021/09/15 08:36:38;;;;;;;9.18;4.13;;;;;;;;;;5011385;28;20032;-54
2021/09/15 08:39:03;;;;;;;9.77;4.22;;;;;;;;;;5021091;28;20011;-54
2021/09/15 08:41:29;;;;;;;17.52;4.38;;;;;;;;;;5017281;28;20574;-52
2021/09/15 08:43:54;;;;;;;13.52;3.75;;;;;;;;;;5013312;28;20022;-53
2021/09/15 08:46:21;;;;;;;19.27;4.40;;;;;;;;;;5016463;28;20260;-52
2021/09/15 08:48:47;;;;;;;20.85;5.10;;;;;;;;;;5013316;28;20100;-52
2021/09/15 08:51:13;;;;;;;11.25;4.13;;;;;;;;;;5013964;28;20048;-54
2021/09/15 08:53:42;;;;;;;17.17;4.65;;;;;;;;;;5017622;28;20022;-52
2021/09/15 08:56:07;;;;;;;14.38;4.40;;;;;;;;;;5017784;28;20479;-53
2021/09/15 08:58:33;;;;;;;18.92;3.67;;;;;;;;;;5017874;28;20025;-52
2021/09/15 09:01:12;;;;;;;13.25;3.58;;;;;;;;;;5016304;28;20525;-53
2021/09/15 09:03:38;;;;;;;21.00;5.53;;;;;;;;;;5007926;28;20030;-53
2021/09/15 09:06:07;;;;;;;8.63;4.55;;;;;;;;;;5019177;28;20711;-54
2021/09/15 09:08:32;;;;;;;17.08;3.92;;;;;;;;;;5014903;28;20029;-50
2021/09/15 09:10:57;;;;;;;5.13;2.22;;;;;;;;;;5014458;28;20026;-52
2021/09/15 09:13:23;;;;;;;14.48;4.90;;;;;;;;;;5010485;28;20101;-52
2021/09/15 09:15:50;;;;;;;5.47;2.40;;;;;;;;;;5009955;28;20052;-52
2021/09/15 09:18:15;;;;;;;14.90;3.60;;;;;;;;;;5016647;28;20029;-53
2021/09/15 09:20:41;;;;;;;14.10;4.10;;;;;;;;;;5018511;28;20049;-53
2021/09/15 09:23:08;;;;;;;15.85;2.65;;;;;;;;;;5016507;28;20041;-51
2021/09/15 09:25:33;;;;;;;39.05;6.20;;;;;;;;;;5015351;28;20084;-51
2021/09/15 09:27:59;;;;;;;28.67;4.47;;;;;;;;;;5017304;28;20049;-50
2021/09/15 09:30:31;;;;;;;11.55;4.38;;;;;;;;;;5016472;28;20226;-52
2021/09/15 09:32:56;;;;;;;8.77;4.35;;;;;;;;;;5019289;28;20037;-52
2021/09/15 09:35:21;;;;;;;8.18;3.58;;;;;;;;;;5017319;28;20045;-53
2021/09/15 09:37:47;;;;;;;31.35;4.85;;;;;;;;;;5016933;28;20056;-53
2021/09/15 09:40:18;;;;;;;7.15;3.10;;;;;;;;;;5015463;28;20124;-54
2021/09/15 09:42:43;;;;;;;12.02;3.40;;;;;;;;;;5017467;28;20036;-52
2021/09/15 09:45:16;;;;;;;13.18;4.65;;;;;;;;;;5017879;28;20029;-53
2021/09/15 09:47:43;;;;;;;9.65;3.35;;;;;;;;;;5013359;28;20496;-53
2021/09/15 09:50:13;;;;;;;8.65;4.60;;;;;;;;;;5008378;28;20529;-50
2021/09/15 09:52:55;;;;;;;11.27;3.30;;;;;;;;;;5018756;28;20057;-53
2021/09/15 09:55:20;;;;;;;6.10;2.47;;;;;;;;;;5021602;28;20069;-49
2021/09/15 09:57:50;;;;;;;6.18;3.15;;;;;;;;;;5020093;28;20034;-54
2021/09/15 10:00:16;;;;;;;6.40;2.08;;;;;;;;;;5013000;28;20072;-52
2021/09/15 10:02:42;;;;;;;15.38;2.95;;;;;;;;;;5009959;28;20037;-52
2021/09/15 10:05:07;;;;;;;10.32;2.55;;;;;;;;;;5010849;28;20045;-55
2021/09/15 10:07:33;;;;;;;10.57;2.30;;;;;;;;;;5010990;28;20034;-53
2021/09/15 10:09:58;;;;;;;8.93;4.05;;;;;;;;;;5011085;28;20409;-46
2021/09/15 10:12:24;;;;;;;17.67;2.97;;;;;;;;;;5013927;28;20053;-50
2021/09/15 10:14:50;;;;;;;13.65;3.00;;;;;;;;;;5009990;28;20030;-46
2021/09/15 10:17:16;;;;;;;22.65;5.05;;;;;;;;;;5019777;28;20018;-47
2021/09/15 10:19:45;;;;;;;10.32;2.13;;;;;;;;;;5017144;28;20045;-46
2021/09/15 10:22:10;;;;;;;6.43;2.45;;;;;;;;;;5016040;28;20037;-45
2021/09/15 10:24:48;;;;;;;17.00;3.75;;;;;;;;;;5017548;28;20034;-47
2021/09/15 10:27:14;;;;;;;7.72;3.20;;;;;;;;;;5016955;28;20026;-48
2021/09/15 10:29:43;;;;;;;33.42;3.72;;;;;;;;;;5016727;28;20030;-45
2021/09/15 10:32:09;;;;;;;31.27;3.40;;;;;;;;;;5012706;28;20579;-48
2021/09/15 10:34:37;;;;;;;14.52;3.72;;;;;;;;;;5018592;28;20425;-47
2021/09/15 10:37:09;;;;;;;14.90;3.53;;;;;;;;;;5016021;28;20017;-47
2021/09/15 10:39:52;;;;;;;8.32;3.63;;;;;;;;;;5021047;28;20784;-45
2021/09/15 10:42:38;;;;;;;9.63;3.80;;;;;;;;;;5018525;28;20084;-48
2021/09/15 10:45:13;;;;;;;22.45;5.40;;;;;;;;;;5020709;28;20028;-46
2021/09/15 10:47:47;;;;;;;19.52;4.00;;;;;;;;;;5017042;28;20097;-47
2021/09/15 10:50:37;;;;;;;18.73;3.55;;;;;;;;;;5017805;28;20390;-46
2021/09/15 10:53:08;;;;;;;7.43;3.95;;;;;;;;;;5016530;28;20380;-48
2021/09/15 10:55:38;;;;;;;10.65;3.95;;;;;;;;;;5015765;28;20022;-53
2021/09/15 10:58:13;;;;;;;10.75;3.58;;;;;;;;;;5020968;28;20030;-48
2021/09/15 11:00:52;;;;;;;17.23;3.08;;;;;;;;;;5007792;28;20033;-50
2021/09/15 11:03:25;;;;;;;8.98;3.05;;;;;;;;;;5014252;28;20122;-47
2021/09/15 11:05:51;;;;;;;20.25;3.22;;;;;;;;;;5013387;28;20809;-49
2021/09/15 11:08:35;;;;;;;9.70;2.08;;;;;;;;;;5017264;28;20135;-48
2021/09/15 11:11:02;;;;;;;9.30;2.70;;;;;;;;;;5014653;28;20030;-46
2021/09/15 11:13:27;;;;;;;15.40;4.45;;;;;;;;;;5018419;28;20028;-46
2021/09/15 11:15:54;;;;;;;32.60;5.18;;;;;;;;;;5015951;28;20018;-46
2021/09/15 11:18:26;;;;;;;9.35;2.97;;;;;;;;;;5014976;28;20046;-47
2021/09/15 11:20:54;;;;;;;3.72;1.98;;;;;;;;;;5011856;28;20176;-49
2021/09/15 11:23:20;;;;;;;15.38;3.85;;;;;;;;;;5011577;28;20026;-48
2021/09/15 11:25:49;;;;;;;3.78;2.22;;;;;;;;;;5013752;28;20474;-45
2021/09/15 11:28:15;;;;;;;24.48;3.80;;;;;;;;;;5011869;28;20033;-50
2021/09/15 11:30:41;;;;;;;7.63;3.72;;;;;;;;;;5015085;28;20083;-49
2021/09/15 11:33:06;;;;;;;15.15;4.15;;;;;;;;;;5015175;28;20038;-52
2021/09/15 11:35:33;;;;;;;6.22;2.88;;;;;;;;;;5014917;28;20722;-54
2021/09/15 11:37:58;;;;;;;34.95;4.25;;;;;;;;;;5012071;28;20833;-53
2021/09/15 11:40:28;;;;;;;10.35;2.58;;;;;;;;;;5016256;28;20033;-52
2021/09/15 11:42:54;;;;;;;25.67;10.82;;;;;;;;;;5012278;28;20025;-50
2021/09/15 11:45:20;;;;;;;7.97;3.33;;;;;;;;;;5014385;28;20063;-54
2021/09/15 11:47:46;;;;;;;13.60;2.85;;;;;;;;;;5019665;28;20025;-52
2021/09/15 11:50:15;;;;;;;13.23;5.55;;;;;;;;;;5017651;28;20032;-52
2021/09/15 11:52:42;;;;;;;11.07;3.85;;;;;;;;;;5015239;28;20103;-50
2021/09/15 11:55:10;;;;;;;9.02;3.60;;;;;;;;;;5001396;28;20026;-50
2021/09/15 11:57:41;;;;;;;11.18;2.58;;;;;;;;;;5001726;28;20030;-51
2021/09/15 12:00:07;;;;;;;9.05;2.67;;;;;;;;;;5021758;28;20084;-53
2021/09/15 12:02:34;;;;;;;11.63;1.63;;;;;;;;;;5011446;28;20029;-52
2021/09/15 12:05:00;;;;;;;6.40;2.33;;;;;;;;;;5015967;28;20451;-54
2021/09/15 12:07:27;;;;;;;15.57;3.28;;;;;;;;;;5019963;28;20029;-53
2021/09/15 12:09:52;;;;;;;7.25;1.98;;;;;;;;;;5013849;28;20725;-54
2021/09/15 12:12:18;;;;;;;2.50;1.08;;;;;;;;;;5013636;28;20044;-54
2021/09/15 12:14:44;;;;;;;4.50;2.97;;;;;;;;;;5012805;28;20407;-54
2021/09/15 12:17:09;;;;;;;7.03;3.00;;;;;;;;;;5012269;28;20029;-53
2021/09/15 12:19:36;;;;;;;10.75;2.00;;;;;;;;;;5013166;28;20025;-53
2021/09/15 12:22:02;;;;;;;14.40;4.10;;;;;;;;;;5017962;28;20046;-53
2021/09/15 12:24:28;;;;;;;5.78;2.25;;;;;;;;;;5015516;28;20099;-54
2021/09/15 12:26:53;;;;;;;15.30;3.47;;;;;;;;;;5016072;28;20586;-53
2021/09/15 12:29:22;;;;;;;12.13;1.90;;;;;;;;;;5016602;28;20026;-54
2021/09/15 12:32:00;;;;;;;18.30;2.45;;;;;;;;;;5016389;28;20033;-53
2021/09/15 12:34:36;;;;;;;20.38;4.65;;;;;;;;;;5014078;28;20024;-52
2021/09/15 12:37:11;;;;;;;8.38;3.17;;;;;;;;;;5018951;28;20100;-55
2021/09/15 12:39:50;;;;;;;10.45;4.28;;;;;;;;;;5014275;28;20029;-55
2021/09/15 12:42:17;;;;;;;6.05;1.50;;;;;;;;;;5012560;28;20026;-54
2021/09/15 12:44:42;;;;;;;10.63;3.15;;;;;;;;;;5018890;28;20747;-54
2021/09/15 12:47:08;;;;;;;12.55;3.28;;;;;;;;;;5012478;28;20025;-54
2021/09/15 12:49:38;;;;;;;6.85;2.97;;;;;;;;;;5008893;28;20112;-55
2021/09/15 12:52:03;;;;;;;;;;;;;;;;;;5016484;28;20394;-54
2021/09/15 12:54:28;;;;;;;13.53;3.23;;;;;;;;;;5015157;28;19909;-54
2021/09/15 12:57:11;;;;;;;10.88;3.70;;;;;;;;;;5010852;28;20021;-54
2021/09/15 12:59:36;;;;;;;10.57;2.35;;;;;;;;;;5013469;28;20097;-54
2021/09/15 13:02:17;;;;;;;35.88;4.15;;;;;;;;;;5017497;28;20090;-52
2021/09/15 13:04:43;;;;;;;13.55;2.88;;;;;;;;;;5014066;28;20821;-55
2021/09/15 13:07:08;;;;;;;8.80;4.25;;;;;;;;;;5018540;28;20048;-54
2021/09/15 13:09:33;;;;;;;5.72;2.90;;;;;;;;;;5010322;28;20037;-53
2021/09/15 13:11:58;;;;;;;7.03;3.15;;;;;;;;;;5012926;28;20026;-52
2021/09/15 13:14:24;;;;;;;8.05;2.65;;;;;;;;;;5015838;28;20032;-55
2021/09/15 13:16:49;;;;;;;12.80;3.45;;;;;;;;;;5015479;28;20100;-53
2021/09/15 13:19:14;;;;;;;5.65;2.22;;;;;;;;;;5016186;28;20556;-54
2021/09/15 13:21:39;;;;;;;14.38;2.35;;;;;;;;;;5013561;28;20065;-55
2021/09/15 13:24:05;;;;;;;21.85;4.38;;;;;;;;;;5011690;28;20051;-52
2021/09/15 13:26:30;;;;;;;13.25;3.30;;;;;;;;;;5011581;28;20096;-54
2021/09/15 13:28:56;;;;;;;6.88;3.75;;;;;;;;;;5010134;28;20044;-52
2021/09/15 13:31:21;;;;;;;7.65;3.10;;;;;;;;;;5016161;28;20640;-55
2021/09/15 13:33:46;;;;;;;8.40;5.50;;;;;;;;;;5015463;28;20029;-54
2021/09/15 13:36:12;;;;;;;10.90;4.95;;;;;;;;;;5016093;28;20021;-55
2021/09/15 13:38:37;;;;;;;15.68;3.95;;;;;;;;;;5008988;28;20030;-55
2021/09/15 13:41:02;;;;;;;10.25;2.17;;;;;;;;;;5017197;28;20028;-55
2021/09/15 13:43:28;;;;;;;9.82;3.47;;;;;;;;;;5014342;28;20495;-54
2021/09/15 13:45:53;;;;;;;15.73;3.63;;;;;;;;;;5012942;28;20026;-55
2021/09/15 13:48:18;;;;;;;16.30;4.85;;;;;;;;;;5015067;28;20025;-54
2021/09/15 13:50:43;;;;;;;6.53;3.65;;;;;;;;;;5017220;28;20026;-55
2021/09/15 13:53:09;;;;;;;8.75;2.70;;;;;;;;;;5013836;28;20033;-55
2021/09/15 13:55:34;;;;;;;10.18;3.70;;;;;;;;;;5016700;28;20022;-53
2021/09/15 13:57:59;;;;;;;22.50;3.50;;;;;;;;;;5009742;28;20045;-55
2021/09/15 14:00:25;;;;;;;9.73;2.40;;;;;;;;;;5004986;28;20495;-55
2021/09/15 14:02:50;;;;;;;5.65;2.90;;;;;;;;;;5015777;28;20626;-55
2021/09/15 14:05:16;;;;;;;6.85;2.22;;;;;;;;;;5019092;28;20049;-55
2021/09/15 14:07:41;;;;;;;22.20;9.80;;;;;;;;;;5021810;28;20033;-54
2021/09/15 14:10:07;;;;;;;8.10;3.80;;;;;;;;;;5022382;28;20038;-54
2021/09/15 14:12:33;;;;;;;5.78;2.83;;;;;;;;;;5018141;28;20032;-55
2021/09/15 14:14:59;;;;;;;6.80;2.35;;;;;;;;;;5014460;28;20029;-55
2021/09/15 14:17:24;;;;;;;8.23;3.42;;;;;;;;;;5014100;28;20028;-53
2021/09/15 14:19:49;;;;;;;4.85;3.03;;;;;;;;;;5014128;28;20109;-53
2021/09/15 14:22:15;;;;;;;11.07;3.05;;;;;;;;;;5013988;28;20029;-55
2021/09/15 14:24:43;;;;;;;13.68;3.92;;;;;;;;;;5013477;28;20034;-54
2021/09/15 14:27:08;;;;;;;14.55;4.57;;;;;;;;;;5018726;28;20030;-54
2021/09/15 14:29:33;;;;;;;17.80;4.65;;;;;;;;;;5021094;28;20076;-54
2021/09/15 14:31:59;;;;;;;11.73;3.20;;;;;;;;;;5023179;28;20094;-54
2021/09/15 14:34:24;;;;;;;9.25;2.88;;;;;;;;;;5024812;28;20017;-56
2021/09/15 14:36:49;;;;;;;9.80;3.30;;;;;;;;;;5018188;28;20026;-55